createdAt,value
2023-01-19T00:00:06.771Z,95902.41
2023-01-19T00:02:33.083Z,95899.38
2023-01-19T00:04:59.378Z,95897.97
2023-01-19T00:07:25.630Z,95895.75
2023-01-19T00:09:51.918Z,95907.69
2023-01-19T00:12:18.179Z,95908.13
2023-01-19T00:14:44.441Z,95902.84
2023-01-19T00:17:10.701Z,95906.69
2023-01-19T00:19:36.955Z,95906.31
2023-01-19T00:22:03.233Z,95904.91
2023-01-19T00:24:29.497Z,95906.75
2023-01-19T00:26:55.768Z,95905.53
2023-01-19T00:29:22.033Z,95900.91
2023-01-19T00:31:48.321Z,95902.31
2023-01-19T00:34:14.608Z,95904.13
2023-01-19T00:36:40.895Z,95906.56
2023-01-19T00:39:07.152Z,95899.28
2023-01-19T00:41:33.406Z,95907.97
2023-01-19T00:43:59.652Z,95905.75
2023-01-19T00:46:25.891Z,95902.72
2023-01-19T00:48:52.263Z,95911.41
2023-01-19T00:51:18.510Z,95914.47
2023-01-19T00:53:44.751Z,95913.44
2023-01-19T00:56:11.028Z,95925.38
2023-01-19T00:58:37.277Z,95912.44
2023-01-19T01:01:03.988Z,95909.41
2023-01-19T01:03:30.348Z,95916.47
2023-01-19T01:05:56.616Z,95917.28
2023-01-19T01:08:22.960Z,95929.41
2023-01-19T01:10:49.277Z,95932.66
2023-01-19T01:13:22.551Z,95926.19
2023-01-19T01:15:50.085Z,95936.50
2023-01-19T01:18:16.331Z,95923.56
2023-01-19T01:20:42.607Z,95932.47
2023-01-19T01:23:08.859Z,95927.44
2023-01-19T01:25:35.133Z,95942.59
2023-01-19T01:28:01.403Z,95942.59
2023-01-19T01:30:27.681Z,95942.78
2023-01-19T01:32:53.927Z,95948.84
2023-01-19T01:35:20.179Z,95944.22
2023-01-19T01:37:46.472Z,95948.66
2023-01-19T01:40:12.762Z,95949.06
2023-01-19T01:42:39.047Z,95960.38
2023-01-19T01:45:05.735Z,95959.56
2023-01-19T01:47:32.019Z,95957.34
2023-01-19T01:49:58.302Z,95951.28
2023-01-19T01:52:24.608Z,95950.88
2023-01-19T01:54:50.887Z,95953.09
2023-01-19T01:57:17.137Z,95948.03
2023-01-19T01:59:43.402Z,95952.06
2023-01-19T02:02:09.698Z,95960.53
2023-01-19T02:04:36.651Z,95960.75
2023-01-19T02:07:02.943Z,95961.34
2023-01-19T02:09:29.242Z,95964.38
2023-01-19T02:11:55.611Z,95966.19
2023-01-19T02:14:21.880Z,95962.34
2023-01-19T02:16:48.213Z,95962.94
2023-01-19T02:19:14.465Z,95959.28
2023-01-19T02:21:40.766Z,95958.88
2023-01-19T02:24:07.031Z,95968.16
2023-01-19T02:26:33.281Z,95955.66
2023-01-19T02:28:59.555Z,95958.66
2023-01-19T02:31:25.819Z,95963.31
2023-01-19T02:33:52.076Z,95962.91
2023-01-19T02:36:18.341Z,95959.47
2023-01-19T02:38:44.677Z,95966.75
2023-01-19T02:41:10.943Z,95963.09
2023-01-19T02:43:37.196Z,95966.94
2023-01-19T02:46:03.515Z,95966.94
2023-01-19T02:48:29.800Z,95968.53
2023-01-19T02:50:56.057Z,95963.47
2023-01-19T02:53:22.391Z,95965.03
2023-01-19T02:55:48.669Z,95972.69
2023-01-19T02:58:14.926Z,95972.84
2023-01-19T03:00:41.215Z,95970.38
2023-01-19T03:03:07.550Z,95972.19
2023-01-19T03:05:33.844Z,95972.78
2023-01-19T03:08:00.139Z,95969.34
2023-01-19T03:10:26.530Z,95972.34
2023-01-19T03:12:52.787Z,95973.56
2023-01-19T03:15:19.144Z,95980.16
2023-01-19T03:17:45.429Z,95978.03
2023-01-19T03:20:11.683Z,95985.88
2023-01-19T03:22:37.954Z,95991.22
2023-01-19T03:25:04.229Z,95985.47
2023-01-19T03:27:30.521Z,95985.75
2023-01-19T03:29:56.773Z,95990.63
2023-01-19T03:32:23.032Z,95990.38
2023-01-19T03:34:49.280Z,95985.94
2023-01-19T03:37:15.535Z,95990.34
2023-01-19T03:39:41.799Z,95990.16
2023-01-19T03:42:08.049Z,95992.13
2023-01-19T03:44:34.288Z,95989.72
2023-01-19T03:47:00.552Z,95996.53
2023-01-19T03:49:26.840Z,96004.03
2023-01-19T03:51:53.099Z,96001.03
2023-01-19T03:54:19.381Z,96003.66
2023-01-19T03:56:45.653Z,96009.69
2023-01-19T03:59:11.925Z,96004.03
2023-01-19T04:01:38.276Z,96008.63
2023-01-19T04:04:04.597Z,96007.41
2023-01-19T04:06:30.858Z,96005.59
2023-01-19T04:08:57.218Z,96012.41
2023-01-19T04:11:23.719Z,96011.00
2023-01-19T04:13:50.031Z,96011.63
2023-01-19T04:16:16.330Z,96004.78
2023-01-19T04:18:42.618Z,96011.00
2023-01-19T04:21:08.876Z,96013.63
2023-01-19T04:23:35.129Z,96019.25
2023-01-19T04:26:01.391Z,96011.41
2023-01-19T04:28:27.657Z,96014.63
2023-01-19T04:30:53.992Z,96010.34
2023-01-19T04:33:20.267Z,96016.63
2023-01-19T04:35:46.529Z,96013.81
2023-01-19T04:38:12.791Z,96020.94
2023-01-19T04:40:39.059Z,96020.56
2023-01-19T04:43:05.336Z,96025.16
2023-01-19T04:45:31.596Z,96023.56
2023-01-19T04:47:57.846Z,96025.38
2023-01-19T04:50:24.098Z,96022.38
2023-01-19T04:52:50.344Z,96028.78
2023-01-19T04:55:16.604Z,96023.94
2023-01-19T04:57:42.850Z,96042.03
2023-01-19T05:00:09.107Z,96039.47
2023-01-19T05:02:35.376Z,96038.16
2023-01-19T05:05:01.697Z,96037.81
2023-01-19T05:07:28.041Z,96040.19
2023-01-19T05:09:54.348Z,96039.25
2023-01-19T05:12:20.635Z,96031.22
2023-01-19T05:14:46.901Z,96032.22
2023-01-19T05:17:13.187Z,96032.84
2023-01-19T05:19:39.444Z,96033.03
2023-01-19T05:22:05.695Z,96031.84
2023-01-19T05:24:31.977Z,96035.91
2023-01-19T05:26:58.243Z,96047.19
2023-01-19T05:29:24.485Z,96045.75
2023-01-19T05:31:50.943Z,96046.38
2023-01-19T05:34:17.205Z,96043.94
2023-01-19T05:36:43.472Z,96053.59
2023-01-19T05:39:09.899Z,96051.53
2023-01-19T05:41:36.160Z,96056.00
2023-01-19T05:44:02.433Z,96060.34
2023-01-19T05:46:28.726Z,96062.91
2023-01-19T05:48:55.015Z,96064.53
2023-01-19T05:51:21.300Z,96058.97
2023-01-19T05:53:47.551Z,96070.50
2023-01-19T05:56:13.824Z,96064.63
2023-01-19T05:58:40.086Z,96058.75
2023-01-19T06:01:06.381Z,96067.69
2023-01-19T06:03:32.848Z,96066.50
2023-01-19T06:05:59.274Z,96073.19
2023-01-19T06:08:25.543Z,96078.66
2023-01-19T06:10:51.809Z,96076.13
2023-01-19T06:13:18.100Z,96080.28
2023-01-19T06:15:44.576Z,96080.47
2023-01-19T06:18:10.851Z,96082.72
2023-01-19T06:20:37.117Z,96084.34
2023-01-19T06:23:03.626Z,96089.22
2023-01-19T06:25:30.101Z,96084.63
2023-01-19T06:27:56.356Z,96098.34
2023-01-19T06:30:22.618Z,96097.88
2023-01-19T06:32:48.961Z,96093.00
2023-01-19T06:35:15.201Z,96086.97
2023-01-19T06:37:41.476Z,96086.16
2023-01-19T06:40:07.761Z,96100.25
2023-01-19T06:42:34.027Z,96097.34
2023-01-19T06:45:00.305Z,96101.50
2023-01-19T06:47:26.574Z,96108.63
2023-01-19T06:49:52.848Z,96110.91
2023-01-19T06:52:19.150Z,96121.28
2023-01-19T06:54:45.605Z,96115.97
2023-01-19T06:57:11.877Z,96116.06
2023-01-19T06:59:38.121Z,96114.44
2023-01-19T07:02:27.200Z,96116.59
2023-01-19T07:04:50.699Z,96125.97
2023-01-19T07:07:16.981Z,96121.19
2023-01-19T07:09:43.221Z,96123.00
2023-01-19T07:12:09.484Z,96120.38
2023-01-19T07:14:36.578Z,96122.47
2023-01-19T07:17:02.854Z,96127.50
2023-01-19T07:19:29.100Z,96129.75
2023-01-19T07:21:55.372Z,96138.69
2023-01-19T07:24:21.639Z,96132.03
2023-01-19T07:26:47.904Z,96135.91
2023-01-19T07:29:14.154Z,96133.47
2023-01-19T07:31:40.483Z,96139.78
2023-01-19T07:34:06.807Z,96144.81
2023-01-19T07:36:33.123Z,96140.03
2023-01-19T07:38:59.427Z,96136.72
2023-01-19T07:41:25.711Z,96139.97
2023-01-19T07:43:51.976Z,96136.53
2023-01-19T07:46:18.276Z,96147.44
2023-01-19T07:48:44.569Z,96150.88
2023-01-19T07:51:12.705Z,96155.13
2023-01-19T07:53:39.345Z,96157.63
2023-01-19T07:56:05.608Z,96148.25
2023-01-19T07:58:31.869Z,96151.50
2023-01-19T08:00:58.285Z,96156.38
2023-01-19T08:03:24.771Z,96156.00
2023-01-19T08:05:51.048Z,96155.84
2023-01-19T08:08:17.382Z,96154.66
2023-01-19T08:10:43.633Z,96164.41
2023-01-19T08:13:09.871Z,96163.69
2023-01-19T08:15:36.159Z,96168.00
2023-01-19T08:18:02.454Z,96165.03
2023-01-19T08:20:28.731Z,96169.28
2023-01-19T08:22:54.979Z,96166.84
2023-01-19T08:25:21.221Z,96170.19
2023-01-19T08:27:47.511Z,96179.66
2023-01-19T08:30:13.762Z,96173.44
2023-01-19T08:32:40.049Z,96187.16
2023-01-19T08:35:06.334Z,96192.19
2023-01-19T08:37:34.224Z,96189.41
2023-01-19T08:40:00.660Z,96190.47
2023-01-19T08:42:26.922Z,96191.56
2023-01-19T08:44:58.197Z,96185.16
2023-01-19T08:47:24.872Z,96188.41
2023-01-19T08:49:51.202Z,96190.66
2023-01-19T08:52:17.480Z,96190.09
2023-01-19T08:54:43.743Z,96194.72
2023-01-19T08:57:10.017Z,96200.94
2023-01-19T08:59:36.337Z,96198.59
2023-01-19T09:02:02.711Z,96200.91
2023-01-19T09:04:29.086Z,96197.38
2023-01-19T09:06:55.336Z,96204.50
2023-01-19T09:09:21.622Z,96211.44
2023-01-19T09:11:47.933Z,96207.03
2023-01-19T09:14:14.206Z,96210.09
2023-01-19T09:16:40.493Z,96206.69
2023-01-19T09:19:06.799Z,96205.41
2023-01-19T09:21:33.080Z,96207.66
2023-01-19T09:23:59.344Z,96211.34
2023-01-19T09:26:25.608Z,96208.16
2023-01-19T09:28:51.881Z,96218.72
2023-01-19T09:31:18.249Z,96207.47
2023-01-19T09:33:44.541Z,96217.41
2023-01-19T09:36:10.825Z,96217.47
2023-01-19T09:38:37.074Z,96209.84
2023-01-19T09:41:03.441Z,96217.22
2023-01-19T09:43:29.740Z,96211.19
2023-01-19T09:45:56.012Z,96215.88
2023-01-19T09:48:22.248Z,96223.81
2023-01-19T09:50:48.503Z,96217.59
2023-01-19T09:53:14.770Z,96213.59
2023-01-19T09:55:41.069Z,96217.28
2023-01-19T09:58:07.360Z,96219.13
2023-01-19T10:00:33.669Z,96226.06
2023-01-19T10:03:00.314Z,96214.97
2023-01-19T10:05:26.841Z,96221.28
2023-01-19T10:07:53.158Z,96215.03
2023-01-19T10:10:19.421Z,96221.72
2023-01-19T10:12:45.680Z,96222.13
2023-01-19T10:15:11.960Z,96227.63
2023-01-19T10:17:38.211Z,96225.03
2023-01-19T10:20:04.480Z,96209.50
2023-01-19T10:22:30.787Z,96216.41
2023-01-19T10:24:57.074Z,96211.00
2023-01-19T10:27:23.327Z,96205.16
2023-01-19T10:29:49.574Z,96205.53
2023-01-19T10:32:15.875Z,96203.56
2023-01-19T10:34:45.254Z,96207.84
2023-01-19T10:37:11.526Z,96214.31
2023-01-19T10:39:38.836Z,96206.03
2023-01-19T10:42:05.205Z,96215.34
2023-01-19T10:44:31.448Z,96214.34
2023-01-19T10:46:57.750Z,96207.69
2023-01-19T10:49:24.067Z,96206.31
2023-01-19T10:51:50.391Z,96207.72
2023-01-19T10:54:16.666Z,96203.28
2023-01-19T10:56:42.979Z,96201.28
2023-01-19T10:59:09.284Z,96202.31
2023-01-19T11:01:35.655Z,96196.84
2023-01-19T11:04:01.971Z,96194.81
2023-01-19T11:06:28.334Z,96187.13
2023-01-19T11:08:54.599Z,96183.09
2023-01-19T11:11:20.883Z,96181.47
2023-01-19T11:13:47.151Z,96182.09
2023-01-19T11:16:13.548Z,96178.06
2023-01-19T11:18:39.830Z,96168.53
2023-01-19T11:21:06.093Z,96168.34
2023-01-19T11:23:32.375Z,96171.78
2023-01-19T11:25:58.629Z,96160.03
2023-01-19T11:28:24.919Z,96155.97
2023-01-19T11:30:51.263Z,96155.78
2023-01-19T11:33:17.535Z,96148.28
2023-01-19T11:35:43.791Z,96150.69
2023-01-19T11:38:10.066Z,96142.19
2023-01-19T11:40:36.333Z,96141.56
2023-01-19T11:43:02.966Z,96143.81
2023-01-19T11:45:29.517Z,96144.81
2023-01-19T11:47:55.803Z,96143.41
2023-01-19T11:50:22.080Z,96141.78
2023-01-19T11:52:48.392Z,96142.81
2023-01-19T11:55:14.643Z,96139.78
2023-01-19T11:57:40.919Z,96134.91
2023-01-19T12:00:07.169Z,96130.88
2023-01-19T12:02:33.451Z,96128.44
2023-01-19T12:04:59.719Z,96129.84
2023-01-19T12:07:25.976Z,96123.56
2023-01-19T12:09:52.241Z,96126.41
2023-01-19T12:12:18.516Z,96125.38
2023-01-19T12:14:44.774Z,96118.72
2023-01-19T12:17:11.020Z,96119.53
2023-01-19T12:19:37.272Z,96116.28
2023-01-19T12:22:03.560Z,96113.63
2023-01-19T12:24:29.845Z,96117.47
2023-01-19T12:26:56.154Z,96115.06
2023-01-19T12:29:22.423Z,96112.81
2023-01-19T12:31:50.937Z,96112.78
2023-01-19T12:34:18.050Z,96116.59
2023-01-19T12:36:44.332Z,96105.16
2023-01-19T12:39:10.626Z,96112.00
2023-01-19T12:41:36.904Z,96110.69
2023-01-19T12:44:03.246Z,96114.16
2023-01-19T12:46:29.565Z,96106.84
2023-01-19T12:48:55.891Z,96101.13
2023-01-19T12:51:22.198Z,96103.16
2023-01-19T12:53:50.551Z,96098.66
2023-01-19T12:56:16.827Z,96100.19
2023-01-19T12:58:43.174Z,96093.41
2023-01-19T13:01:09.575Z,96096.59
2023-01-19T13:03:35.899Z,96084.53
2023-01-19T13:06:02.204Z,96091.34
2023-01-19T13:08:28.477Z,96093.22
2023-01-19T13:10:54.782Z,96090.09
2023-01-19T13:13:21.045Z,96094.66
2023-01-19T13:15:47.343Z,96080.41
2023-01-19T13:18:13.701Z,96087.47
2023-01-19T13:20:39.956Z,96088.78
2023-01-19T13:23:06.226Z,96079.78
2023-01-19T13:25:32.481Z,96078.66
2023-01-19T13:27:58.756Z,96082.47
2023-01-19T13:30:25.118Z,96081.06
2023-01-19T13:32:51.409Z,96078.50
2023-01-19T13:35:17.737Z,96076.00
2023-01-19T13:37:43.999Z,96079.16
2023-01-19T13:40:10.292Z,96076.88
2023-01-19T13:42:36.540Z,96083.63
2023-01-19T13:45:02.819Z,96079.44
2023-01-19T13:47:29.112Z,96072.09
2023-01-19T13:49:55.381Z,96078.63
2023-01-19T13:52:21.660Z,96068.22
2023-01-19T13:54:47.930Z,96065.56
2023-01-19T13:57:14.210Z,96069.81
2023-01-19T13:59:40.552Z,96070.25
2023-01-19T14:02:06.909Z,96062.59
2023-01-19T14:04:33.233Z,96062.78
2023-01-19T14:06:59.484Z,96063.16
2023-01-19T14:09:25.748Z,96058.66
2023-01-19T14:11:52.075Z,96051.09
2023-01-19T14:14:18.370Z,96049.97
2023-01-19T14:16:44.608Z,96048.91
2023-01-19T14:19:10.880Z,96054.34
2023-01-19T14:21:37.194Z,96047.78
2023-01-19T14:24:03.481Z,96052.28
2023-01-19T14:26:29.751Z,96047.34
2023-01-19T14:28:56.016Z,96041.13
2023-01-19T14:31:22.347Z,96042.84
2023-01-19T14:33:48.755Z,96041.13
2023-01-19T14:36:17.583Z,96037.13
2023-01-19T14:38:44.095Z,96037.13
2023-01-19T14:41:10.450Z,96031.94
2023-01-19T14:43:36.693Z,96026.44
2023-01-19T14:46:02.944Z,96028.28
2023-01-19T14:48:29.212Z,96034.59
2023-01-19T14:51:03.147Z,96029.88
2023-01-19T14:53:29.656Z,96036.09
2023-01-19T14:55:55.959Z,96030.09
2023-01-19T14:58:22.219Z,96027.31
2023-01-19T15:00:48.525Z,96026.75
2023-01-19T15:03:14.791Z,96021.00
2023-01-19T15:05:41.054Z,96024.69
2023-01-19T15:08:07.341Z,96020.16
2023-01-19T15:10:33.605Z,96021.75
2023-01-19T15:12:59.910Z,96023.47
2023-01-19T15:15:26.175Z,96021.91
2023-01-19T15:17:53.171Z,96015.22
2023-01-19T15:20:20.511Z,96020.41
2023-01-19T15:22:46.815Z,96018.19
2023-01-19T15:25:13.072Z,96018.75
2023-01-19T15:27:39.349Z,96021.19
2023-01-19T15:30:05.625Z,96023.44
2023-01-19T15:32:31.910Z,96023.38
2023-01-19T15:34:58.229Z,96024.16
2023-01-19T15:37:24.590Z,96017.69
2023-01-19T15:39:50.929Z,96023.53
2023-01-19T15:42:17.290Z,96017.56
2023-01-19T15:44:43.651Z,96006.94
2023-01-19T15:47:10.018Z,96011.63
2023-01-19T15:49:36.309Z,96010.31
2023-01-19T15:52:02.594Z,96007.72
2023-01-19T15:54:28.860Z,96005.16
2023-01-19T15:56:55.115Z,96012.16
2023-01-19T15:59:21.389Z,96013.06
2023-01-19T16:01:47.845Z,96007.03
2023-01-19T16:04:15.998Z,96010.22
2023-01-19T16:06:44.083Z,96005.53
2023-01-19T16:09:10.352Z,96004.94
2023-01-19T16:11:36.605Z,96008.22
2023-01-19T16:14:02.861Z,96012.09
2023-01-19T16:16:29.198Z,96004.66
2023-01-19T16:18:55.523Z,95996.56
2023-01-19T16:21:21.821Z,95995.38
2023-01-19T16:23:48.091Z,95985.25
2023-01-19T16:26:16.187Z,95988.53
2023-01-19T16:28:43.747Z,95983.25
2023-01-19T16:31:10.031Z,95980.19
2023-01-19T16:33:36.340Z,95979.81
2023-01-19T16:36:02.598Z,95982.03
2023-01-19T16:38:28.901Z,95976.38
2023-01-19T16:40:55.175Z,95982.66
2023-01-19T16:43:21.442Z,95985.94
2023-01-19T16:45:47.749Z,95985.56
2023-01-19T16:48:14.025Z,95984.16
2023-01-19T16:50:40.315Z,95982.56
2023-01-19T16:53:06.571Z,95976.09
2023-01-19T16:55:32.838Z,95977.94
2023-01-19T16:57:59.106Z,95978.34
2023-01-19T17:00:25.388Z,95984.63
2023-01-19T17:02:51.714Z,95980.38
2023-01-19T17:05:18.023Z,95983.81
2023-01-19T17:07:44.327Z,95980.81
2023-01-19T17:10:10.833Z,95977.41
2023-01-19T17:12:37.228Z,95970.34
2023-01-19T17:15:03.488Z,95974.41
2023-01-19T17:17:29.735Z,95968.53
2023-01-19T17:19:56.017Z,95969.56
2023-01-19T17:22:22.329Z,95969.97
2023-01-19T17:24:48.601Z,95961.47
2023-01-19T17:27:14.913Z,95957.84
2023-01-19T17:29:41.218Z,95953.19
2023-01-19T17:32:07.498Z,95952.38
2023-01-19T17:34:33.804Z,95953.59
2023-01-19T17:37:00.103Z,95951.41
2023-01-19T17:39:26.397Z,95943.72
2023-01-19T17:41:52.694Z,95949.59
2023-01-19T17:44:18.991Z,95951.03
2023-01-19T17:46:45.247Z,95947.19
2023-01-19T17:49:11.599Z,95950.66
2023-01-19T17:51:37.868Z,95956.31
2023-01-19T17:54:04.178Z,95948.63
2023-01-19T17:56:30.513Z,95947.03
2023-01-19T17:58:56.803Z,95949.91
2023-01-19T18:01:23.189Z,95946.91
2023-01-19T18:03:49.531Z,95946.94
2023-01-19T18:06:15.979Z,95949.38
2023-01-19T18:08:42.287Z,95937.88
2023-01-19T18:11:08.609Z,95941.53
2023-01-19T18:13:34.891Z,95934.66
2023-01-19T18:16:01.350Z,95939.94
2023-01-19T18:18:27.645Z,95936.50
2023-01-19T18:20:53.924Z,95932.44
2023-01-19T18:23:20.276Z,95940.94
2023-01-19T18:25:46.585Z,95933.50
2023-01-19T18:28:13.025Z,95925.00
2023-01-19T18:30:39.426Z,95930.88
2023-01-19T18:33:05.790Z,95923.78
2023-01-19T18:35:32.063Z,95916.91
2023-01-19T18:37:58.347Z,95916.69
2023-01-19T18:40:24.605Z,95920.72
2023-01-19T18:42:50.963Z,95918.50
2023-01-19T18:45:17.337Z,95914.66
2023-01-19T18:47:43.624Z,95918.88
2023-01-19T18:50:09.882Z,95919.50
2023-01-19T18:52:36.163Z,95914.88
2023-01-19T18:55:02.461Z,95918.31
2023-01-19T18:57:28.810Z,95917.28
2023-01-19T18:59:55.142Z,95910.81
2023-01-19T19:02:21.490Z,95912.03
2023-01-19T19:04:47.789Z,95904.75
2023-01-19T19:07:14.052Z,95905.94
2023-01-19T19:09:40.407Z,95908.78
2023-01-19T19:12:06.695Z,95912.38
2023-01-19T19:14:32.983Z,95907.91
2023-01-19T19:16:59.242Z,95910.91
2023-01-19T19:19:25.532Z,95911.66
2023-01-19T19:21:51.811Z,95906.22
2023-01-19T19:24:18.105Z,95914.69
2023-01-19T19:26:44.391Z,95912.03
2023-01-19T19:29:10.659Z,95915.66
2023-01-19T19:31:36.994Z,95908.56
2023-01-19T19:34:03.475Z,95902.09
2023-01-19T19:36:29.800Z,95908.56
2023-01-19T19:38:56.085Z,95914.66
2023-01-19T19:41:22.369Z,95915.88
2023-01-19T19:43:48.679Z,95911.81
2023-01-19T19:46:14.954Z,95916.03
2023-01-19T19:48:41.247Z,95919.00
2023-01-19T19:51:17.736Z,95917.81
2023-01-19T19:53:45.008Z,95914.72
2023-01-19T19:56:11.290Z,95919.81
2023-01-19T19:58:37.581Z,95920.03
2023-01-19T20:01:04.030Z,95921.06
2023-01-19T20:03:30.318Z,95917.44
2023-01-19T20:05:56.634Z,95920.69
2023-01-19T20:08:22.950Z,95917.66
2023-01-19T20:10:49.232Z,95921.91
2023-01-19T20:13:15.652Z,95927.34
2023-01-19T20:15:42.101Z,95921.72
2023-01-19T20:18:08.436Z,95923.72
2023-01-19T20:20:34.757Z,95932.22
2023-01-19T20:23:01.032Z,95937.66
2023-01-19T20:25:27.311Z,95935.63
2023-01-19T20:27:53.601Z,95933.22
2023-01-19T20:30:19.893Z,95935.38
2023-01-19T20:32:46.299Z,95937.97
2023-01-19T20:35:12.991Z,95934.69
2023-01-19T20:37:39.536Z,95936.28
2023-01-19T20:40:05.826Z,95935.91
2023-01-19T20:42:32.084Z,95933.66
2023-01-19T20:45:13.858Z,95931.22
2023-01-19T20:47:40.332Z,95941.25
2023-01-19T20:50:06.702Z,95940.88
2023-01-19T20:52:33.135Z,95931.81
2023-01-19T20:54:59.414Z,95941.09
2023-01-19T20:57:25.768Z,95939.28
2023-01-19T20:59:52.064Z,95941.09
2023-01-19T21:02:18.578Z,95939.25
2023-01-19T21:04:44.928Z,95942.44
2023-01-19T21:07:11.259Z,95943.06
2023-01-19T21:09:37.509Z,95939.25
2023-01-19T21:12:03.805Z,95950.50
2023-01-19T21:14:30.081Z,95948.69
2023-01-19T21:16:56.363Z,95957.94
2023-01-19T21:19:25.709Z,95962.34
2023-01-19T21:21:51.992Z,95961.16
2023-01-19T21:24:18.271Z,95967.19
2023-01-19T21:26:44.560Z,95973.00
2023-01-19T21:29:10.834Z,95968.59
2023-01-19T21:31:37.234Z,95975.19
2023-01-19T21:34:03.621Z,95973.81
2023-01-19T21:36:29.878Z,95986.13
2023-01-19T21:38:56.132Z,95984.50
2023-01-19T21:41:22.402Z,95983.81
2023-01-19T21:43:48.661Z,95992.44
2023-01-19T21:46:14.920Z,95989.44
2023-01-19T21:48:41.173Z,95991.81
2023-01-19T21:51:07.447Z,95989.69
2023-01-19T21:53:33.713Z,95992.25
2023-01-19T21:56:00.010Z,96001.38
2023-01-19T21:58:26.275Z,96003.84
2023-01-19T22:00:52.660Z,95999.63
2023-01-19T22:03:19.020Z,95999.25
2023-01-19T22:05:45.324Z,96005.09
2023-01-19T22:08:11.588Z,96015.13
2023-01-19T22:10:37.864Z,96029.59
2023-01-19T22:13:04.137Z,96033.66
2023-01-19T22:15:30.405Z,96026.00
2023-01-19T22:17:56.678Z,96027.81
2023-01-19T22:20:22.945Z,96033.22
2023-01-19T22:22:49.328Z,96037.66
2023-01-19T22:25:15.749Z,96037.47
2023-01-19T22:27:42.062Z,96037.28
2023-01-19T22:30:08.384Z,96039.47
2023-01-19T22:32:34.687Z,96046.69
2023-01-19T22:35:00.960Z,96043.44
2023-01-19T22:37:27.243Z,96051.44
2023-01-19T22:39:53.587Z,96041.56
2023-01-19T22:42:19.880Z,96037.72
2023-01-19T22:44:46.139Z,96041.84
2023-01-19T22:47:12.427Z,96040.94
2023-01-19T22:49:38.755Z,96036.78
2023-01-19T22:52:05.061Z,96048.44
2023-01-19T22:54:31.372Z,96047.81
2023-01-19T22:56:57.695Z,96047.44
2023-01-19T22:59:23.970Z,96050.69
2023-01-19T23:01:50.363Z,96053.41
2023-01-19T23:04:16.697Z,96052.78
2023-01-19T23:06:42.992Z,96054.75
2023-01-19T23:09:09.344Z,96048.06
2023-01-19T23:11:36.184Z,96057.47
2023-01-19T23:14:02.491Z,96053.31
2023-01-19T23:16:28.760Z,96054.56
2023-01-19T23:18:55.041Z,96058.03
2023-01-19T23:21:21.332Z,96056.13
2023-01-19T23:23:47.595Z,96062.22
2023-01-19T23:26:13.940Z,96058.28
2023-01-19T23:28:40.311Z,96064.97
2023-01-19T23:31:06.632Z,96064.59
2023-01-19T23:33:32.941Z,96068.47
2023-01-19T23:35:59.198Z,96069.91
2023-01-19T23:38:25.468Z,96058.91
2023-01-19T23:40:51.742Z,96057.31
2023-01-19T23:43:18.010Z,96063.97
2023-01-19T23:45:44.365Z,96068.03
2023-01-19T23:48:10.638Z,96061.78
2023-01-19T23:50:36.903Z,96071.66
2023-01-19T23:53:03.269Z,96072.28
2023-01-19T23:55:29.568Z,96078.13
2023-01-19T23:57:55.841Z,96079.19
